sensor_id;sensor_type;location;lat;lon;timestamp;P1;durP1;ratioP1;P2;durP2;ratioP2
71106;SDS011;58763;47.982;11.516;2023-08-06T00:00:21;6.53;;;3.15;;
71106;SDS011;58763;47.982;11.516;2023-08-06T00:02:48;6.63;;;4.20;;
71106;SDS011;58763;47.982;11.516;2023-08-06T00:05:14;7.32;;;4.72;;
71106;SDS011;58763;47.982;11.516;2023-08-06T00:07:43;8.25;;;4.30;;
71106;SDS011;58763;47.982;11.516;2023-08-06T00:10:09;6.97;;;4.07;;
71106;SDS011;58763;47.982;11.516;2023-08-06T00:12:34;6.28;;;3.20;;
71106;SDS011;58763;47.982;11.516;2023-08-06T00:15:00;5.90;;;3.33;;
71106;SDS011;58763;47.982;11.516;2023-08-06T00:17:25;5.22;;;3.33;;
71106;SDS011;58763;47.982;11.516;2023-08-06T00:19:51;6.25;;;4.00;;
71106;SDS011;58763;47.982;11.516;2023-08-06T00:22:16;6.28;;;3.75;;
71106;SDS011;58763;47.982;11.516;2023-08-06T00:24:42;6.22;;;3.90;;
71106;SDS011;58763;47.982;11.516;2023-08-06T00:27:07;7.00;;;4.22;;
71106;SDS011;58763;47.982;11.516;2023-08-06T00:29:33;7.28;;;4.40;;
71106;SDS011;58763;47.982;11.516;2023-08-06T00:31:59;8.00;;;4.80;;
71106;SDS011;58763;47.982;11.516;2023-08-06T00:34:24;7.45;;;3.63;;
71106;SDS011;58763;47.982;11.516;2023-08-06T00:36:49;8.07;;;4.65;;
71106;SDS011;58763;47.982;11.516;2023-08-06T00:39:15;9.35;;;4.60;;
71106;SDS011;58763;47.982;11.516;2023-08-06T00:41:40;7.60;;;4.70;;
71106;SDS011;58763;47.982;11.516;2023-08-06T00:44:06;8.60;;;4.50;;
71106;SDS011;58763;47.982;11.516;2023-08-06T00:46:31;7.35;;;4.40;;
71106;SDS011;58763;47.982;11.516;2023-08-06T00:48:58;8.43;;;4.85;;
71106;SDS011;58763;47.982;11.516;2023-08-06T00:51:25;7.63;;;4.45;;
71106;SDS011;58763;47.982;11.516;2023-08-06T00:53:51;8.25;;;4.80;;
71106;SDS011;58763;47.982;11.516;2023-08-06T00:56:18;9.52;;;4.90;;
71106;SDS011;58763;47.982;11.516;2023-08-06T00:58:44;10.43;;;4.95;;
71106;SDS011;58763;47.982;11.516;2023-08-06T01:01:10;7.93;;;4.82;;
71106;SDS011;58763;47.982;11.516;2023-08-06T01:03:36;6.88;;;4.43;;
71106;SDS011;58763;47.982;11.516;2023-08-06T01:06:01;9.50;;;4.68;;
71106;SDS011;58763;47.982;11.516;2023-08-06T01:13:46;6.53;;;3.95;;
71106;SDS011;58763;47.982;11.516;2023-08-06T01:16:17;6.88;;;4.35;;
71106;SDS011;58763;47.982;11.516;2023-08-06T01:18:44;7.43;;;4.10;;
71106;SDS011;58763;47.982;11.516;2023-08-06T01:23:41;8.13;;;3.60;;
71106;SDS011;58763;47.982;11.516;2023-08-06T01:26:51;5.45;;;3.38;;
71106;SDS011;58763;47.982;11.516;2023-08-06T01:29:15;6.07;;;3.40;;
71106;SDS011;58763;47.982;11.516;2023-08-06T01:31:46;6.45;;;3.40;;
71106;SDS011;58763;47.982;11.516;2023-08-06T01:34:23;5.43;;;3.50;;
71106;SDS011;58763;47.982;11.516;2023-08-06T01:36:50;6.93;;;3.15;;
71106;SDS011;58763;47.982;11.516;2023-08-06T01:39:17;4.80;;;2.83;;
71106;SDS011;58763;47.982;11.516;2023-08-06T01:41:46;5.40;;;3.20;;
71106;SDS011;58763;47.982;11.516;2023-08-06T01:44:12;4.80;;;2.88;;
71106;SDS011;58763;47.982;11.516;2023-08-06T01:46:37;4.75;;;2.80;;
71106;SDS011;58763;47.982;11.516;2023-08-06T01:49:03;5.40;;;3.00;;
71106;SDS011;58763;47.982;11.516;2023-08-06T01:51:29;5.55;;;3.05;;
71106;SDS011;58763;47.982;11.516;2023-08-06T01:53:54;5.00;;;2.63;;
71106;SDS011;58763;47.982;11.516;2023-08-06T01:56:19;6.40;;;3.45;;
71106;SDS011;58763;47.982;11.516;2023-08-06T01:58:45;5.18;;;2.85;;
71106;SDS011;58763;47.982;11.516;2023-08-06T02:01:10;6.63;;;3.05;;
71106;SDS011;58763;47.982;11.516;2023-08-06T02:03:36;5.22;;;3.15;;
71106;SDS011;58763;47.982;11.516;2023-08-06T02:06:01;5.07;;;3.17;;
71106;SDS011;58763;47.982;11.516;2023-08-06T02:08:27;5.38;;;3.10;;
71106;SDS011;58763;47.982;11.516;2023-08-06T02:10:52;7.00;;;3.10;;
71106;SDS011;58763;47.982;11.516;2023-08-06T02:13:19;5.22;;;3.05;;
71106;SDS011;58763;47.982;11.516;2023-08-06T02:15:45;6.85;;;3.15;;
71106;SDS011;58763;47.982;11.516;2023-08-06T02:18:13;6.28;;;3.20;;
71106;SDS011;58763;47.982;11.516;2023-08-06T02:20:40;4.88;;;2.85;;
71106;SDS011;58763;47.982;11.516;2023-08-06T02:23:05;5.35;;;2.80;;
71106;SDS011;58763;47.982;11.516;2023-08-06T02:25:31;6.38;;;2.88;;
71106;SDS011;58763;47.982;11.516;2023-08-06T02:27:56;5.32;;;2.88;;
71106;SDS011;58763;47.982;11.516;2023-08-06T02:30:22;5.00;;;2.88;;
71106;SDS011;58763;47.982;11.516;2023-08-06T02:32:47;4.90;;;2.78;;
71106;SDS011;58763;47.982;11.516;2023-08-06T02:35:12;6.80;;;2.90;;
71106;SDS011;58763;47.982;11.516;2023-08-06T02:37:38;7.57;;;2.42;;
71106;SDS011;58763;47.982;11.516;2023-08-06T02:40:04;5.00;;;2.53;;
71106;SDS011;58763;47.982;11.516;2023-08-06T02:42:30;5.28;;;2.83;;
71106;SDS011;58763;47.982;11.516;2023-08-06T02:44:55;4.05;;;2.42;;
71106;SDS011;58763;47.982;11.516;2023-08-06T02:47:21;5.25;;;2.80;;
71106;SDS011;58763;47.982;11.516;2023-08-06T02:49:46;5.30;;;2.75;;
71106;SDS011;58763;47.982;11.516;2023-08-06T02:52:12;6.90;;;2.67;;
71106;SDS011;58763;47.982;11.516;2023-08-06T02:54:37;5.13;;;2.80;;
71106;SDS011;58763;47.982;11.516;2023-08-06T02:57:04;5.68;;;2.67;;
71106;SDS011;58763;47.982;11.516;2023-08-06T02:59:30;3.78;;;2.38;;
71106;SDS011;58763;47.982;11.516;2023-08-06T03:01:55;6.05;;;2.38;;
71106;SDS011;58763;47.982;11.516;2023-08-06T03:04:21;4.40;;;2.30;;
71106;SDS011;58763;47.982;11.516;2023-08-06T03:06:46;3.83;;;2.25;;
71106;SDS011;58763;47.982;11.516;2023-08-06T03:09:12;4.57;;;2.40;;
71106;SDS011;58763;47.982;11.516;2023-08-06T03:11:37;6.03;;;2.20;;
71106;SDS011;58763;47.982;11.516;2023-08-06T03:14:03;5.28;;;2.45;;
71106;SDS011;58763;47.982;11.516;2023-08-06T03:16:28;4.88;;;2.50;;
71106;SDS011;58763;47.982;11.516;2023-08-06T03:18:54;3.95;;;2.35;;
71106;SDS011;58763;47.982;11.516;2023-08-06T03:21:19;7.15;;;2.40;;
71106;SDS011;58763;47.982;11.516;2023-08-06T03:23:46;4.30;;;2.40;;
71106;SDS011;58763;47.982;11.516;2023-08-06T03:26:13;5.78;;;2.55;;
71106;SDS011;58763;47.982;11.516;2023-08-06T03:28:39;7.10;;;2.35;;
71106;SDS011;58763;47.982;11.516;2023-08-06T03:31:04;3.95;;;2.10;;
71106;SDS011;58763;47.982;11.516;2023-08-06T03:33:30;5.20;;;2.05;;
71106;SDS011;58763;47.982;11.516;2023-08-06T03:35:56;4.18;;;2.22;;
71106;SDS011;58763;47.982;11.516;2023-08-06T03:38:22;5.13;;;2.00;;
71106;SDS011;58763;47.982;11.516;2023-08-06T03:40:50;4.50;;;2.13;;
71106;SDS011;58763;47.982;11.516;2023-08-06T03:43:16;4.97;;;2.58;;
71106;SDS011;58763;47.982;11.516;2023-08-06T03:45:42;4.72;;;2.60;;
71106;SDS011;58763;47.982;11.516;2023-08-06T03:48:07;3.92;;;2.08;;
71106;SDS011;58763;47.982;11.516;2023-08-06T03:50:33;4.72;;;2.17;;
71106;SDS011;58763;47.982;11.516;2023-08-06T03:52:59;3.92;;;2.03;;
71106;SDS011;58763;47.982;11.516;2023-08-06T03:55:25;4.60;;;2.10;;
71106;SDS011;58763;47.982;11.516;2023-08-06T03:57:50;4.40;;;2.35;;
71106;SDS011;58763;47.982;11.516;2023-08-06T04:00:16;4.05;;;2.20;;
71106;SDS011;58763;47.982;11.516;2023-08-06T04:02:41;4.72;;;2.22;;
71106;SDS011;58763;47.982;11.516;2023-08-06T04:05:07;3.53;;;2.13;;
71106;SDS011;58763;47.982;11.516;2023-08-06T04:07:33;4.60;;;2.05;;
71106;SDS011;58763;47.982;11.516;2023-08-06T04:09:59;4.47;;;2.10;;
71106;SDS011;58763;47.982;11.516;2023-08-06T04:12:26;4.65;;;2.50;;
71106;SDS011;58763;47.982;11.516;2023-08-06T04:14:53;4.50;;;2.17;;
71106;SDS011;58763;47.982;11.516;2023-08-06T04:17:19;5.45;;;2.53;;
71106;SDS011;58763;47.982;11.516;2023-08-06T04:19:54;4.82;;;2.10;;
71106;SDS011;58763;47.982;11.516;2023-08-06T04:22:23;4.50;;;2.20;;
71106;SDS011;58763;47.982;11.516;2023-08-06T04:24:49;5.40;;;2.20;;
71106;SDS011;58763;47.982;11.516;2023-08-06T04:27:15;4.97;;;2.15;;
71106;SDS011;58763;47.982;11.516;2023-08-06T04:29:40;4.90;;;2.30;;
71106;SDS011;58763;47.982;11.516;2023-08-06T04:32:07;3.60;;;1.90;;
71106;SDS011;58763;47.982;11.516;2023-08-06T04:34:34;4.95;;;2.28;;
71106;SDS011;58763;47.982;11.516;2023-08-06T04:37:01;3.92;;;2.17;;
71106;SDS011;58763;47.982;11.516;2023-08-06T04:39:27;4.22;;;1.80;;
71106;SDS011;58763;47.982;11.516;2023-08-06T04:41:53;4.18;;;2.25;;
71106;SDS011;58763;47.982;11.516;2023-08-06T04:44:20;5.30;;;2.20;;
71106;SDS011;58763;47.982;11.516;2023-08-06T04:46:46;4.57;;;2.10;;
71106;SDS011;58763;47.982;11.516;2023-08-06T04:49:11;4.88;;;1.83;;
71106;SDS011;58763;47.982;11.516;2023-08-06T04:51:36;4.18;;;1.70;;
71106;SDS011;58763;47.982;11.516;2023-08-06T04:54:02;5.53;;;1.92;;
71106;SDS011;58763;47.982;11.516;2023-08-06T04:56:28;3.50;;;1.80;;
71106;SDS011;58763;47.982;11.516;2023-08-06T04:58:53;3.55;;;1.73;;
71106;SDS011;58763;47.982;11.516;2023-08-06T05:01:18;3.90;;;1.65;;
71106;SDS011;58763;47.982;11.516;2023-08-06T05:03:44;4.38;;;1.85;;
71106;SDS011;58763;47.982;11.516;2023-08-06T05:06:10;4.00;;;1.67;;
71106;SDS011;58763;47.982;11.516;2023-08-06T05:08:36;4.00;;;1.65;;
71106;SDS011;58763;47.982;11.516;2023-08-06T05:11:01;3.45;;;1.55;;
71106;SDS011;58763;47.982;11.516;2023-08-06T05:13:27;4.63;;;2.10;;
71106;SDS011;58763;47.982;11.516;2023-08-06T05:15:53;3.85;;;1.70;;
71106;SDS011;58763;47.982;11.516;2023-08-06T05:18:19;3.70;;;1.70;;
71106;SDS011;58763;47.982;11.516;2023-08-06T05:20:45;5.15;;;1.92;;
71106;SDS011;58763;47.982;11.516;2023-08-06T05:23:10;3.90;;;1.70;;
71106;SDS011;58763;47.982;11.516;2023-08-06T05:25:36;3.85;;;1.92;;
71106;SDS011;58763;47.982;11.516;2023-08-06T05:28:02;3.63;;;1.70;;
71106;SDS011;58763;47.982;11.516;2023-08-06T05:30:28;5.10;;;2.05;;
71106;SDS011;58763;47.982;11.516;2023-08-06T05:32:54;4.60;;;1.77;;
71106;SDS011;58763;47.982;11.516;2023-08-06T05:35:21;4.10;;;1.80;;
71106;SDS011;58763;47.982;11.516;2023-08-06T05:37:47;4.00;;;1.80;;
71106;SDS011;58763;47.982;11.516;2023-08-06T05:40:13;3.83;;;1.73;;
71106;SDS011;58763;47.982;11.516;2023-08-06T05:42:39;4.20;;;1.50;;
71106;SDS011;58763;47.982;11.516;2023-08-06T05:45:04;3.47;;;1.73;;
71106;SDS011;58763;47.982;11.516;2023-08-06T05:47:30;4.07;;;1.80;;
71106;SDS011;58763;47.982;11.516;2023-08-06T05:49:56;3.38;;;1.73;;
71106;SDS011;58763;47.982;11.516;2023-08-06T05:52:21;4.15;;;1.77;;
71106;SDS011;58763;47.982;11.516;2023-08-06T05:54:46;2.95;;;1.23;;
71106;SDS011;58763;47.982;11.516;2023-08-06T05:57:12;5.07;;;1.50;;
71106;SDS011;58763;47.982;11.516;2023-08-06T05:59:37;2.45;;;1.10;;
71106;SDS011;58763;47.982;11.516;2023-08-06T06:02:03;2.97;;;1.40;;
71106;SDS011;58763;47.982;11.516;2023-08-06T06:04:29;3.40;;;1.40;;
71106;SDS011;58763;47.982;11.516;2023-08-06T06:06:54;3.13;;;1.40;;
71106;SDS011;58763;47.982;11.516;2023-08-06T06:09:21;4.38;;;1.50;;
71106;SDS011;58763;47.982;11.516;2023-08-06T06:11:47;4.38;;;1.63;;
71106;SDS011;58763;47.982;11.516;2023-08-06T06:14:16;2.95;;;1.33;;
71106;SDS011;58763;47.982;11.516;2023-08-06T06:16:42;3.10;;;1.20;;
71106;SDS011;58763;47.982;11.516;2023-08-06T06:19:08;3.35;;;1.10;;
71106;SDS011;58763;47.982;11.516;2023-08-06T06:21:33;3.50;;;1.42;;
71106;SDS011;58763;47.982;11.516;2023-08-06T06:23:59;3.58;;;1.27;;
71106;SDS011;58763;47.982;11.516;2023-08-06T06:26:24;3.42;;;1.38;;
71106;SDS011;58763;47.982;11.516;2023-08-06T06:28:50;2.75;;;1.23;;
71106;SDS011;58763;47.982;11.516;2023-08-06T06:31:16;2.88;;;1.23;;
71106;SDS011;58763;47.982;11.516;2023-08-06T06:33:41;3.90;;;1.35;;
71106;SDS011;58763;47.982;11.516;2023-08-06T06:36:07;3.67;;;1.40;;
71106;SDS011;58763;47.982;11.516;2023-08-06T06:38:33;3.47;;;1.40;;
71106;SDS011;58763;47.982;11.516;2023-08-06T06:40:59;3.08;;;1.30;;
71106;SDS011;58763;47.982;11.516;2023-08-06T06:43:25;6.15;;;1.40;;
71106;SDS011;58763;47.982;11.516;2023-08-06T06:45:57;3.22;;;1.20;;
71106;SDS011;58763;47.982;11.516;2023-08-06T06:48:25;4.85;;;1.08;;
71106;SDS011;58763;47.982;11.516;2023-08-06T06:50:51;4.03;;;1.10;;
71106;SDS011;58763;47.982;11.516;2023-08-06T06:53:17;3.17;;;1.25;;
71106;SDS011;58763;47.982;11.516;2023-08-06T06:55:42;2.88;;;1.20;;
71106;SDS011;58763;47.982;11.516;2023-08-06T06:58:08;3.53;;;1.30;;
71106;SDS011;58763;47.982;11.516;2023-08-06T07:00:35;4.18;;;1.20;;
71106;SDS011;58763;47.982;11.516;2023-08-06T07:03:03;4.63;;;1.40;;
71106;SDS011;58763;47.982;11.516;2023-08-06T07:05:28;2.97;;;1.08;;
71106;SDS011;58763;47.982;11.516;2023-08-06T07:07:54;3.88;;;0.90;;
71106;SDS011;58763;47.982;11.516;2023-08-06T07:10:19;2.67;;;1.00;;
71106;SDS011;58763;47.982;11.516;2023-08-06T07:12:45;4.97;;;1.15;;
71106;SDS011;58763;47.982;11.516;2023-08-06T07:15:10;4.30;;;1.15;;
71106;SDS011;58763;47.982;11.516;2023-08-06T07:17:36;3.97;;;1.17;;
71106;SDS011;58763;47.982;11.516;2023-08-06T07:20:01;3.53;;;1.20;;
71106;SDS011;58763;47.982;11.516;2023-08-06T07:22:28;3.65;;;1.00;;
71106;SDS011;58763;47.982;11.516;2023-08-06T07:24:53;3.20;;;0.90;;
71106;SDS011;58763;47.982;11.516;2023-08-06T07:27:18;2.17;;;0.90;;
71106;SDS011;58763;47.982;11.516;2023-08-06T07:29:44;2.42;;;0.98;;
71106;SDS011;58763;47.982;11.516;2023-08-06T07:32:09;3.55;;;1.13;;
71106;SDS011;58763;47.982;11.516;2023-08-06T07:34:35;3.22;;;1.10;;
71106;SDS011;58763;47.982;11.516;2023-08-06T07:37:00;2.97;;;0.90;;
71106;SDS011;58763;47.982;11.516;2023-08-06T07:39:26;2.47;;;0.77;;
71106;SDS011;58763;47.982;11.516;2023-08-06T07:41:54;2.75;;;0.75;;
71106;SDS011;58763;47.982;11.516;2023-08-06T07:44:19;2.15;;;0.60;;
71106;SDS011;58763;47.982;11.516;2023-08-06T07:46:45;3.22;;;1.10;;
71106;SDS011;58763;47.982;11.516;2023-08-06T07:49:11;3.28;;;0.90;;
71106;SDS011;58763;47.982;11.516;2023-08-06T07:51:36;2.97;;;0.85;;
71106;SDS011;58763;47.982;11.516;2023-08-06T07:54:02;2.53;;;0.82;;
71106;SDS011;58763;47.982;11.516;2023-08-06T07:56:28;2.80;;;0.93;;
71106;SDS011;58763;47.982;11.516;2023-08-06T07:58:54;2.05;;;0.70;;
71106;SDS011;58763;47.982;11.516;2023-08-06T08:01:19;4.22;;;1.05;;
71106;SDS011;58763;47.982;11.516;2023-08-06T08:03:45;4.53;;;1.10;;
71106;SDS011;58763;47.982;11.516;2023-08-06T08:06:11;2.25;;;0.80;;
71106;SDS011;58763;47.982;11.516;2023-08-06T08:08:36;3.00;;;1.08;;
71106;SDS011;58763;47.982;11.516;2023-08-06T08:11:03;1.73;;;0.70;;
71106;SDS011;58763;47.982;11.516;2023-08-06T08:13:29;2.42;;;0.90;;
71106;SDS011;58763;47.982;11.516;2023-08-06T08:15:58;2.45;;;0.60;;
71106;SDS011;58763;47.982;11.516;2023-08-06T08:18:24;2.65;;;0.60;;
71106;SDS011;58763;47.982;11.516;2023-08-06T08:20:51;4.25;;;0.70;;
71106;SDS011;58763;47.982;11.516;2023-08-06T08:23:16;4.53;;;0.63;;
71106;SDS011;58763;47.982;11.516;2023-08-06T08:25:42;3.10;;;1.35;;
71106;SDS011;58763;47.982;11.516;2023-08-06T08:28:07;3.88;;;1.10;;
71106;SDS011;58763;47.982;11.516;2023-08-06T08:30:33;1.98;;;0.75;;
71106;SDS011;58763;47.982;11.516;2023-08-06T08:32:59;1.38;;;0.50;;
71106;SDS011;58763;47.982;11.516;2023-08-06T08:35:24;2.05;;;0.50;;
71106;SDS011;58763;47.982;11.516;2023-08-06T08:37:50;1.60;;;0.40;;
71106;SDS011;58763;47.982;11.516;2023-08-06T08:40:16;5.03;;;0.35;;
71106;SDS011;58763;47.982;11.516;2023-08-06T08:42:42;0.85;;;0.30;;
71106;SDS011;58763;47.982;11.516;2023-08-06T08:45:12;1.77;;;0.43;;
71106;SDS011;58763;47.982;11.516;2023-08-06T08:47:40;1.63;;;0.40;;
71106;SDS011;58763;47.982;11.516;2023-08-06T08:50:07;1.67;;;0.40;;
71106;SDS011;58763;47.982;11.516;2023-08-06T08:52:33;0.93;;;0.30;;
71106;SDS011;58763;47.982;11.516;2023-08-06T08:55:01;1.35;;;0.38;;
71106;SDS011;58763;47.982;11.516;2023-08-06T08:57:27;1.15;;;0.28;;
71106;SDS011;58763;47.982;11.516;2023-08-06T08:59:52;2.13;;;0.40;;
71106;SDS011;58763;47.982;11.516;2023-08-06T09:02:18;1.67;;;0.20;;
71106;SDS011;58763;47.982;11.516;2023-08-06T09:04:46;1.95;;;0.20;;
71106;SDS011;58763;47.982;11.516;2023-08-06T09:07:13;2.15;;;0.40;;
71106;SDS011;58763;47.982;11.516;2023-08-06T09:09:44;0.80;;;0.20;;
71106;SDS011;58763;47.982;11.516;2023-08-06T09:12:14;2.38;;;0.20;;
71106;SDS011;58763;47.982;11.516;2023-08-06T09:14:42;2.50;;;0.20;;
71106;SDS011;58763;47.982;11.516;2023-08-06T09:17:07;1.48;;;0.30;;
71106;SDS011;58763;47.982;11.516;2023-08-06T09:19:35;0.50;;;0.20;;
71106;SDS011;58763;47.982;11.516;2023-08-06T09:22:01;1.95;;;0.28;;
71106;SDS011;58763;47.982;11.516;2023-08-06T09:24:27;2.97;;;0.30;;
71106;SDS011;58763;47.982;11.516;2023-08-06T09:26:53;1.33;;;0.30;;
71106;SDS011;58763;47.982;11.516;2023-08-06T09:29:19;1.30;;;0.30;;
71106;SDS011;58763;47.982;11.516;2023-08-06T09:31:46;0.82;;;0.20;;
71106;SDS011;58763;47.982;11.516;2023-08-06T09:36:46;1.03;;;0.43;;
71106;SDS011;58763;47.982;11.516;2023-08-06T09:39:19;1.90;;;0.40;;
71106;SDS011;58763;47.982;11.516;2023-08-06T09:41:46;2.20;;;0.28;;
71106;SDS011;58763;47.982;11.516;2023-08-06T09:44:19;1.00;;;0.30;;
71106;SDS011;58763;47.982;11.516;2023-08-06T09:46:49;1.85;;;0.20;;
71106;SDS011;58763;47.982;11.516;2023-08-06T09:49:16;0.40;;;0.20;;
71106;SDS011;58763;47.982;11.516;2023-08-06T09:51:43;1.35;;;0.30;;
71106;SDS011;58763;47.982;11.516;2023-08-06T09:54:11;1.20;;;0.20;;
71106;SDS011;58763;47.982;11.516;2023-08-06T09:56:39;0.45;;;0.10;;
71106;SDS011;58763;47.982;11.516;2023-08-06T09:59:05;0.50;;;0.20;;
71106;SDS011;58763;47.982;11.516;2023-08-06T10:01:35;0.40;;;0.20;;
71106;SDS011;58763;47.982;11.516;2023-08-06T10:04:01;2.42;;;0.30;;
71106;SDS011;58763;47.982;11.516;2023-08-06T10:06:29;0.50;;;0.20;;
71106;SDS011;58763;47.982;11.516;2023-08-06T10:08:54;2.00;;;0.20;;
71106;SDS011;58763;47.982;11.516;2023-08-06T10:11:21;0.57;;;0.15;;
71106;SDS011;58763;47.982;11.516;2023-08-06T10:13:49;2.25;;;0.30;;
71106;SDS011;58763;47.982;11.516;2023-08-06T10:16:18;0.70;;;0.20;;
71106;SDS011;58763;47.982;11.516;2023-08-06T10:18:45;0.68;;;0.20;;
71106;SDS011;58763;47.982;11.516;2023-08-06T10:21:12;2.80;;;0.30;;
71106;SDS011;58763;47.982;11.516;2023-08-06T10:23:40;0.45;;;0.15;;
71106;SDS011;58763;47.982;11.516;2023-08-06T10:26:05;0.50;;;0.20;;
71106;SDS011;58763;47.982;11.516;2023-08-06T10:28:37;0.55;;;0.20;;
71106;SDS011;58763;47.982;11.516;2023-08-06T10:31:04;0.52;;;0.10;;
71106;SDS011;58763;47.982;11.516;2023-08-06T10:34:03;0.82;;;0.15;;
71106;SDS011;58763;47.982;11.516;2023-08-06T10:36:21;2.28;;;0.20;;
71106;SDS011;58763;47.982;11.516;2023-08-06T10:38:48;0.30;;;0.10;;
71106;SDS011;58763;47.982;11.516;2023-08-06T10:41:16;0.52;;;0.17;;
71106;SDS011;58763;47.982;11.516;2023-08-06T10:44:08;0.70;;;0.20;;
71106;SDS011;58763;47.982;11.516;2023-08-06T10:46:35;0.20;;;0.20;;
71106;SDS011;58763;47.982;11.516;2023-08-06T10:49:01;1.65;;;0.20;;
71106;SDS011;58763;47.982;11.516;2023-08-06T10:51:27;0.10;;;0.10;;
71106;SDS011;58763;47.982;11.516;2023-08-06T10:53:52;0.50;;;0.13;;
71106;SDS011;58763;47.982;11.516;2023-08-06T10:56:19;0.40;;;0.10;;
71106;SDS011;58763;47.982;11.516;2023-08-06T10:58:49;0.43;;;0.10;;
71106;SDS011;58763;47.982;11.516;2023-08-06T11:01:16;0.15;;;0.10;;
71106;SDS011;58763;47.982;11.516;2023-08-06T11:03:43;0.10;;;0.10;;
71106;SDS011;58763;47.982;11.516;2023-08-06T11:06:09;0.32;;;0.10;;
71106;SDS011;58763;47.982;11.516;2023-08-06T11:08:36;1.05;;;0.20;;
71106;SDS011;58763;47.982;11.516;2023-08-06T11:11:14;0.15;;;0.10;;
71106;SDS011;58763;47.982;11.516;2023-08-06T11:13:40;0.88;;;0.20;;
71106;SDS011;58763;47.982;11.516;2023-08-06T11:16:11;3.00;;;0.15;;
71106;SDS011;58763;47.982;11.516;2023-08-06T11:18:38;0.52;;;0.13;;
71106;SDS011;58763;47.982;11.516;2023-08-06T11:21:05;1.45;;;0.15;;
71106;SDS011;58763;47.982;11.516;2023-08-06T11:23:31;0.10;;;0.10;;
71106;SDS011;58763;47.982;11.516;2023-08-06T11:26:03;2.17;;;0.20;;
71106;SDS011;58763;47.982;11.516;2023-08-06T11:28:29;0.50;;;0.10;;
71106;SDS011;58763;47.982;11.516;2023-08-06T11:30:54;0.32;;;0.10;;
71106;SDS011;58763;47.982;11.516;2023-08-06T11:33:25;0.28;;;0.15;;
71106;SDS011;58763;47.982;11.516;2023-08-06T11:35:51;1.45;;;0.10;;
71106;SDS011;58763;47.982;11.516;2023-08-06T11:38:17;0.20;;;0.10;;
71106;SDS011;58763;47.982;11.516;2023-08-06T11:40:47;0.40;;;0.20;;
71106;SDS011;58763;47.982;11.516;2023-08-06T11:43:13;0.10;;;0.10;;
71106;SDS011;58763;47.982;11.516;2023-08-06T11:45:39;0.20;;;0.13;;
71106;SDS011;58763;47.982;11.516;2023-08-06T11:48:06;0.10;;;0.10;;
71106;SDS011;58763;47.982;11.516;2023-08-06T11:50:38;0.10;;;0.10;;
71106;SDS011;58763;47.982;11.516;2023-08-06T11:53:04;0.77;;;0.20;;
71106;SDS011;58763;47.982;11.516;2023-08-06T11:55:30;0.30;;;0.20;;
71106;SDS011;58763;47.982;11.516;2023-08-06T11:57:56;0.20;;;0.10;;
71106;SDS011;58763;47.982;11.516;2023-08-06T12:00:23;1.05;;;0.30;;
71106;SDS011;58763;47.982;11.516;2023-08-06T12:02:50;0.85;;;0.20;;
71106;SDS011;58763;47.982;11.516;2023-08-06T12:07:50;0.15;;;0.10;;
71106;SDS011;58763;47.982;11.516;2023-08-06T12:10:17;0.70;;;0.13;;
71106;SDS011;58763;47.982;11.516;2023-08-06T12:12:44;0.20;;;0.20;;
71106;SDS011;58763;47.982;11.516;2023-08-06T12:15:10;0.40;;;0.20;;
71106;SDS011;58763;47.982;11.516;2023-08-06T12:17:36;0.40;;;0.20;;
71106;SDS011;58763;47.982;11.516;2023-08-06T12:20:06;0.20;;;0.13;;
71106;SDS011;58763;47.982;11.516;2023-08-06T12:22:33;1.08;;;0.20;;
71106;SDS011;58763;47.982;11.516;2023-08-06T12:25:03;1.30;;;0.10;;
71106;SDS011;58763;47.982;11.516;2023-08-06T12:27:36;0.20;;;0.10;;
71106;SDS011;58763;47.982;11.516;2023-08-06T12:30:02;0.43;;;0.20;;
71106;SDS011;58763;47.982;11.516;2023-08-06T12:32:29;0.35;;;0.20;;
71106;SDS011;58763;47.982;11.516;2023-08-06T12:34:54;0.32;;;0.15;;
71106;SDS011;58763;47.982;11.516;2023-08-06T12:37:20;0.35;;;0.13;;
71106;SDS011;58763;47.982;11.516;2023-08-06T12:39:45;0.30;;;0.20;;
71106;SDS011;58763;47.982;11.516;2023-08-06T12:42:11;0.65;;;0.30;;
71106;SDS011;58763;47.982;11.516;2023-08-06T12:44:36;2.20;;;0.20;;
71106;SDS011;58763;47.982;11.516;2023-08-06T12:47:02;0.10;;;0.10;;
71106;SDS011;58763;47.982;11.516;2023-08-06T12:49:27;0.98;;;0.30;;
71106;SDS011;58763;47.982;11.516;2023-08-06T12:51:53;0.20;;;0.10;;
71106;SDS011;58763;47.982;11.516;2023-08-06T12:54:20;0.75;;;0.20;;
71106;SDS011;58763;47.982;11.516;2023-08-06T12:56:46;0.93;;;0.20;;
71106;SDS011;58763;47.982;11.516;2023-08-06T12:59:13;0.60;;;0.20;;
71106;SDS011;58763;47.982;11.516;2023-08-06T13:01:40;1.35;;;0.30;;
71106;SDS011;58763;47.982;11.516;2023-08-06T13:04:06;0.47;;;0.20;;
71106;SDS011;58763;47.982;11.516;2023-08-06T13:06:32;0.68;;;0.20;;
71106;SDS011;58763;47.982;11.516;2023-08-06T13:09:02;0.50;;;0.20;;
71106;SDS011;58763;47.982;11.516;2023-08-06T13:11:29;0.32;;;0.20;;
71106;SDS011;58763;47.982;11.516;2023-08-06T13:13:56;0.10;;;0.10;;
71106;SDS011;58763;47.982;11.516;2023-08-06T13:16:36;2.60;;;0.30;;
71106;SDS011;58763;47.982;11.516;2023-08-06T13:19:03;0.68;;;0.30;;
71106;SDS011;58763;47.982;11.516;2023-08-06T13:21:37;0.50;;;0.30;;
71106;SDS011;58763;47.982;11.516;2023-08-06T13:24:23;0.70;;;0.30;;
71106;SDS011;58763;47.982;11.516;2023-08-06T13:26:48;0.60;;;0.30;;
71106;SDS011;58763;47.982;11.516;2023-08-06T13:29:14;0.52;;;0.20;;
71106;SDS011;58763;47.982;11.516;2023-08-06T13:31:39;1.15;;;0.30;;
71106;SDS011;58763;47.982;11.516;2023-08-06T13:34:05;0.52;;;0.28;;
71106;SDS011;58763;47.982;11.516;2023-08-06T13:36:30;1.15;;;0.30;;
71106;SDS011;58763;47.982;11.516;2023-08-06T13:38:56;0.38;;;0.20;;
71106;SDS011;58763;47.982;11.516;2023-08-06T13:41:23;0.60;;;0.20;;
71106;SDS011;58763;47.982;11.516;2023-08-06T13:43:48;0.73;;;0.30;;
71106;SDS011;58763;47.982;11.516;2023-08-06T13:46:14;0.30;;;0.20;;
71106;SDS011;58763;47.982;11.516;2023-08-06T13:48:43;0.95;;;0.30;;
71106;SDS011;58763;47.982;11.516;2023-08-06T13:51:10;0.80;;;0.22;;
71106;SDS011;58763;47.982;11.516;2023-08-06T13:53:37;0.43;;;0.20;;
71106;SDS011;58763;47.982;11.516;2023-08-06T13:56:03;0.32;;;0.20;;
71106;SDS011;58763;47.982;11.516;2023-08-06T13:58:29;0.32;;;0.20;;
71106;SDS011;58763;47.982;11.516;2023-08-06T14:00:54;0.90;;;0.20;;
71106;SDS011;58763;47.982;11.516;2023-08-06T14:03:20;1.10;;;0.32;;
71106;SDS011;58763;47.982;11.516;2023-08-06T14:05:46;0.30;;;0.20;;
71106;SDS011;58763;47.982;11.516;2023-08-06T14:08:11;0.77;;;0.20;;
71106;SDS011;58763;47.982;11.516;2023-08-06T14:10:37;0.50;;;0.20;;
71106;SDS011;58763;47.982;11.516;2023-08-06T14:13:02;0.35;;;0.20;;
71106;SDS011;58763;47.982;11.516;2023-08-06T14:15:28;0.20;;;0.20;;
71106;SDS011;58763;47.982;11.516;2023-08-06T14:17:53;0.60;;;0.28;;
71106;SDS011;58763;47.982;11.516;2023-08-06T14:20:19;0.77;;;0.22;;
71106;SDS011;58763;47.982;11.516;2023-08-06T14:22:44;0.65;;;0.20;;
71106;SDS011;58763;47.982;11.516;2023-08-06T14:25:10;1.02;;;0.20;;
71106;SDS011;58763;47.982;11.516;2023-08-06T14:27:35;0.98;;;0.30;;
71106;SDS011;58763;47.982;11.516;2023-08-06T14:30:01;0.40;;;0.20;;
71106;SDS011;58763;47.982;11.516;2023-08-06T14:32:28;0.70;;;0.30;;
71106;SDS011;58763;47.982;11.516;2023-08-06T14:34:54;0.40;;;0.20;;
71106;SDS011;58763;47.982;11.516;2023-08-06T14:37:19;0.85;;;0.30;;
71106;SDS011;58763;47.982;11.516;2023-08-06T14:39:45;1.10;;;0.35;;
71106;SDS011;58763;47.982;11.516;2023-08-06T14:42:10;0.68;;;0.30;;